createdAt,value
2022-09-21T00:00:47.621Z,101747.34
2022-09-21T00:03:16.008Z,101748.97
2022-09-21T00:05:43.972Z,101755.06
2022-09-21T00:08:14.207Z,101757.66
2022-09-21T00:10:41.878Z,101755.88
2022-09-21T00:13:13.388Z,101754.09
2022-09-21T00:15:41.804Z,101756.69
2022-09-21T00:18:11.104Z,101759.28
2022-09-21T00:20:43.514Z,101757.41
2022-09-21T00:23:11.165Z,101764.38
2022-09-21T00:25:39.081Z,101759.03
2022-09-21T00:28:06.712Z,101756.34
2022-09-21T00:30:35.670Z,101763.34
2022-09-21T00:33:03.262Z,101765.88
2022-09-21T00:35:30.851Z,101760.56
2022-09-21T00:38:02.165Z,101771.03
2022-09-21T00:40:30.894Z,101770.91
2022-09-21T00:43:13.183Z,101767.31
2022-09-21T00:45:42.894Z,101769.88
2022-09-21T00:48:11.094Z,101767.16
2022-09-21T00:50:43.745Z,101771.50
2022-09-21T00:53:11.726Z,101765.22
2022-09-21T00:55:44.294Z,101761.72
2022-09-21T00:58:18.094Z,101765.13
2022-09-21T01:00:47.096Z,101770.38
2022-09-21T01:03:14.789Z,101776.47
2022-09-21T01:05:42.432Z,101771.97
2022-09-21T01:08:13.537Z,101769.28
2022-09-21T01:10:56.765Z,101767.47
2022-09-21T01:13:35.790Z,101770.88
2022-09-21T01:16:12.382Z,101773.50
2022-09-21T01:18:46.774Z,101775.16
2022-09-21T01:21:20.148Z,101779.50
2022-09-21T01:24:12.874Z,101770.66
2022-09-21T01:27:00.431Z,101776.81
2022-09-21T01:29:33.557Z,101782.97
2022-09-21T01:32:07.610Z,101788.25
2022-09-21T01:34:40.110Z,101787.28
2022-09-21T01:37:13.893Z,101785.50
2022-09-21T01:39:46.320Z,101786.34
2022-09-21T01:42:15.879Z,101786.34
2022-09-21T01:44:46.296Z,101784.56
2022-09-21T01:47:15.307Z,101794.19
2022-09-21T01:49:47.756Z,101785.41
2022-09-21T01:52:19.552Z,101782.72
2022-09-21T01:54:51.886Z,101782.66
2022-09-21T01:57:27.371Z,101782.59
2022-09-21T01:59:59.059Z,101789.63
2022-09-21T02:02:33.326Z,101786.91
2022-09-21T02:05:03.250Z,101793.81
2022-09-21T02:07:33.119Z,101793.72
2022-09-21T02:10:03.057Z,101797.22
2022-09-21T02:12:32.149Z,101798.88
2022-09-21T02:15:03.192Z,101801.50
2022-09-21T02:17:41.504Z,101800.59
2022-09-21T02:20:20.577Z,101797.91
2022-09-21T02:23:04.375Z,101793.47
2022-09-21T02:25:41.170Z,101807.50
2022-09-21T02:28:17.452Z,101795.19
2022-09-21T02:30:55.210Z,101796.84
2022-09-21T02:33:28.088Z,101804.75
2022-09-21T02:36:01.186Z,101795.03
2022-09-21T02:38:35.279Z,101803.72
2022-09-21T02:41:11.046Z,101804.56
2022-09-21T02:43:42.395Z,101803.69
2022-09-21T02:46:16.036Z,101802.78
2022-09-21T02:48:49.383Z,101793.81
2022-09-21T02:51:21.889Z,101797.34
2022-09-21T02:53:52.956Z,101801.56
2022-09-21T02:56:21.845Z,101804.16
2022-09-21T02:58:54.247Z,101801.50
2022-09-21T03:01:26.029Z,101809.41
2022-09-21T03:03:54.098Z,101807.56
2022-09-21T03:06:21.884Z,101810.13
2022-09-21T03:08:49.798Z,101806.59
2022-09-21T03:11:18.222Z,101815.34
2022-09-21T03:13:46.319Z,101821.53
2022-09-21T03:16:14.838Z,101817.09
2022-09-21T03:18:44.355Z,101812.72
2022-09-21T03:21:12.853Z,101817.94
2022-09-21T03:23:41.145Z,101815.25
2022-09-21T03:26:09.427Z,101825.78
2022-09-21T03:28:37.163Z,101819.56
2022-09-21T03:31:06.679Z,101824.78
2022-09-21T03:33:34.390Z,101824.72
2022-09-21T03:36:04.207Z,101822.91
2022-09-21T03:38:31.841Z,101815.81
2022-09-21T03:40:59.474Z,101825.47
2022-09-21T03:43:27.523Z,101832.50
2022-09-21T03:45:55.249Z,101828.13
2022-09-21T03:48:23.268Z,101834.28
2022-09-21T03:50:51.292Z,101833.44
2022-09-21T03:53:20.209Z,101829.00
2022-09-21T03:55:47.803Z,101839.53
2022-09-21T03:58:16.451Z,101840.34
2022-09-21T04:00:44.138Z,101842.03
2022-09-21T04:03:11.858Z,101837.53
2022-09-21T04:05:40.328Z,101843.69
2022-09-21T04:08:09.750Z,101843.56
2022-09-21T04:10:42.186Z,101842.63
2022-09-21T04:13:09.876Z,101844.28
2022-09-21T04:15:37.517Z,101845.97
2022-09-21T04:18:05.421Z,101847.59
2022-09-21T04:20:33.222Z,101844.03
2022-09-21T04:23:00.875Z,101843.06
2022-09-21T04:25:28.795Z,101846.47
2022-09-21T04:27:57.740Z,101845.66
2022-09-21T04:30:25.396Z,101844.72
2022-09-21T04:32:53.306Z,101840.38
2022-09-21T04:35:20.992Z,101843.84
2022-09-21T04:37:48.659Z,101849.13
2022-09-21T04:40:16.971Z,101850.06
2022-09-21T04:42:44.632Z,101848.34
2022-09-21T04:45:14.113Z,101837.75
2022-09-21T04:47:41.921Z,101840.31
2022-09-21T04:50:10.506Z,101838.50
2022-09-21T04:52:38.216Z,101842.06
2022-09-21T04:55:06.684Z,101849.91
2022-09-21T04:57:35.691Z,101852.50
2022-09-21T05:00:03.830Z,101858.59
2022-09-21T05:02:32.852Z,101852.44
2022-09-21T05:05:00.500Z,101858.53
2022-09-21T05:07:28.147Z,101855.00
2022-09-21T05:10:03.738Z,101862.84
2022-09-21T05:12:31.954Z,101867.22
2022-09-21T05:14:59.764Z,101868.94
2022-09-21T05:17:27.601Z,101866.28
2022-09-21T05:19:56.940Z,101870.63
2022-09-21T05:22:24.886Z,101872.38
2022-09-21T05:24:52.555Z,101874.13
2022-09-21T05:27:20.193Z,101873.22
2022-09-21T05:29:48.381Z,101874.13
2022-09-21T05:32:24.035Z,101886.38
2022-09-21T05:35:03.348Z,101889.06
2022-09-21T05:37:42.754Z,101880.34
2022-09-21T05:40:12.875Z,101882.13
2022-09-21T05:42:41.020Z,101891.84
2022-09-21T05:45:11.284Z,101890.16
2022-09-21T05:47:45.795Z,101890.22
2022-09-21T05:50:25.582Z,101891.16
2022-09-21T05:53:04.975Z,101894.72
2022-09-21T05:55:43.447Z,101895.59
2022-09-21T05:58:22.514Z,101906.19
2022-09-21T06:01:01.936Z,101902.75
2022-09-21T06:03:31.249Z,101899.38
2022-09-21T06:06:00.628Z,101902.06
2022-09-21T06:08:28.610Z,101904.81
2022-09-21T06:10:56.389Z,101901.44
2022-09-21T06:13:24.434Z,101899.75
2022-09-21T06:15:52.041Z,101898.06
2022-09-21T06:18:19.670Z,101901.75
2022-09-21T06:20:47.332Z,101899.34
2022-09-21T06:23:16.541Z,101906.56
2022-09-21T06:25:44.112Z,101899.72
2022-09-21T06:28:14.116Z,101906.06
2022-09-21T06:30:42.361Z,101909.81
2022-09-21T06:33:10.779Z,101905.81
2022-09-21T06:35:40.311Z,101903.41
2022-09-21T06:38:09.185Z,101914.25
2022-09-21T06:40:38.224Z,101910.06
2022-09-21T06:43:06.515Z,101915.66
2022-09-21T06:45:34.567Z,101908.06
2022-09-21T06:48:02.546Z,101914.56
2022-09-21T06:50:30.152Z,101910.44
2022-09-21T06:53:00.656Z,101903.66
2022-09-21T06:55:28.663Z,101909.19
2022-09-21T06:58:02.890Z,101915.75
2022-09-21T07:00:30.862Z,101917.75
2022-09-21T07:02:58.611Z,101919.75
2022-09-21T07:05:26.675Z,101922.75
2022-09-21T07:07:58.571Z,101920.31
2022-09-21T07:10:26.522Z,101925.91
2022-09-21T07:12:54.380Z,101934.06
2022-09-21T07:15:23.667Z,101927.28
2022-09-21T07:17:53.183Z,101928.44
2022-09-21T07:20:32.384Z,101932.25
2022-09-21T07:23:00.373Z,101934.25
2022-09-21T07:25:27.976Z,101939.81
2022-09-21T07:27:55.577Z,101933.81
2022-09-21T07:30:24.532Z,101935.81
2022-09-21T07:32:52.173Z,101942.25
2022-09-21T07:35:20.204Z,101942.53
2022-09-21T07:37:47.807Z,101940.09
2022-09-21T07:40:15.643Z,101942.16
2022-09-21T07:42:44.903Z,101945.03
2022-09-21T07:45:12.624Z,101945.25
2022-09-21T07:47:41.611Z,101948.16
2022-09-21T07:50:09.961Z,101948.31
2022-09-21T07:52:37.606Z,101944.09
2022-09-21T07:55:05.915Z,101949.59
2022-09-21T07:57:51.049Z,101953.38
2022-09-21T08:00:18.848Z,101950.94
2022-09-21T08:02:48.040Z,101945.84
2022-09-21T08:05:16.246Z,101948.72
2022-09-21T08:07:44.098Z,101949.75
2022-09-21T08:10:11.905Z,101947.31
2022-09-21T08:12:39.703Z,101947.53
2022-09-21T08:15:16.495Z,101954.00
2022-09-21T08:17:54.292Z,101942.72
2022-09-21T08:20:23.349Z,101949.13
2022-09-21T08:22:53.263Z,101941.38
2022-09-21T08:25:21.150Z,101942.50
2022-09-21T08:27:49.234Z,101944.47
2022-09-21T08:30:16.976Z,101948.22
2022-09-21T08:32:51.374Z,101947.53
2022-09-21T08:35:20.993Z,101946.88
2022-09-21T08:37:51.025Z,101942.75
2022-09-21T08:40:20.339Z,101953.69
2022-09-21T08:42:57.167Z,101939.78
2022-09-21T08:45:27.716Z,101952.44
2022-09-21T08:48:00.542Z,101948.22
2022-09-21T08:50:36.270Z,101948.44
2022-09-21T08:53:08.683Z,101948.69
2022-09-21T08:55:36.357Z,101951.53
2022-09-21T08:58:04.499Z,101959.69
2022-09-21T09:00:39.173Z,101950.94
2022-09-21T09:03:33.980Z,101951.09
2022-09-21T09:06:10.911Z,101957.47
2022-09-21T09:09:04.470Z,101960.31
2022-09-21T09:11:45.228Z,101957.78
2022-09-21T09:14:41.453Z,101950.66
2022-09-21T09:17:33.881Z,101963.19
2022-09-21T09:20:07.250Z,101959.69
2022-09-21T09:22:43.178Z,101956.22
2022-09-21T09:25:18.749Z,101951.72
2022-09-21T09:27:47.802Z,101952.66
2022-09-21T09:30:19.658Z,101955.34
2022-09-21T09:32:55.133Z,101957.09
2022-09-21T09:35:28.915Z,101954.41
2022-09-21T09:38:01.569Z,101963.31
2022-09-21T09:40:51.740Z,101955.34
2022-09-21T09:43:36.794Z,101952.75
2022-09-21T09:46:15.686Z,101954.59
2022-09-21T09:48:56.507Z,101952.81
2022-09-21T09:51:26.829Z,101958.16
2022-09-21T09:54:00.947Z,101951.94
2022-09-21T09:56:28.656Z,101948.38
2022-09-21T09:59:00.586Z,101961.75
2022-09-21T10:01:39.124Z,101945.69
2022-09-21T10:04:08.677Z,101955.44
2022-09-21T10:06:37.004Z,101958.13
2022-09-21T10:09:20.438Z,101955.41
2022-09-21T10:11:48.992Z,101949.06
2022-09-21T10:14:21.665Z,101949.00
2022-09-21T10:16:52.862Z,101947.25
2022-09-21T10:19:26.158Z,101951.78
2022-09-21T10:21:58.981Z,101944.63
2022-09-21T10:24:30.850Z,101949.00
2022-09-21T10:27:06.338Z,101947.19
2022-09-21T10:29:41.790Z,101948.88
2022-09-21T10:32:24.783Z,101949.69
2022-09-21T10:35:13.515Z,101946.06
2022-09-21T10:37:42.267Z,101946.16
2022-09-21T10:40:26.539Z,101941.69
2022-09-21T10:42:58.519Z,101947.00
2022-09-21T10:45:27.950Z,101939.75
2022-09-21T10:47:58.225Z,101944.97
2022-09-21T10:50:30.308Z,101940.22
2022-09-21T10:53:03.563Z,101935.69
2022-09-21T10:55:33.343Z,101942.88
2022-09-21T10:58:01.428Z,101940.22
2022-09-21T11:00:35.884Z,101943.59
2022-09-21T11:03:29.599Z,101936.19
2022-09-21T11:05:58.860Z,101931.34
2022-09-21T11:08:32.012Z,101920.31
2022-09-21T11:11:14.638Z,101916.31
2022-09-21T11:13:48.699Z,101917.78
2022-09-21T11:16:22.089Z,101920.88
2022-09-21T11:19:00.752Z,101920.41
2022-09-21T11:21:36.412Z,101923.41
2022-09-21T11:24:13.319Z,101925.47
2022-09-21T11:26:48.602Z,101921.09
2022-09-21T11:29:23.305Z,101921.34
2022-09-21T11:32:06.095Z,101917.78
2022-09-21T11:34:55.316Z,101909.72
2022-09-21T11:37:48.228Z,101912.59
2022-09-21T11:40:30.265Z,101908.16
2022-09-21T11:43:13.447Z,101904.38
2022-09-21T11:46:02.466Z,101906.78
2022-09-21T11:48:46.163Z,101915.13
2022-09-21T11:51:25.843Z,101912.94
2022-09-21T11:54:22.275Z,101905.97
2022-09-21T11:56:54.104Z,101907.00
2022-09-21T11:59:40.153Z,101904.09
2022-09-21T12:02:32.157Z,101903.19
2022-09-21T12:05:12.396Z,101900.31
2022-09-21T12:07:55.434Z,101906.81
2022-09-21T12:10:39.410Z,101889.50
2022-09-21T12:13:15.825Z,101887.69
2022-09-21T12:15:51.998Z,101890.22
2022-09-21T12:18:28.846Z,101879.25
2022-09-21T12:21:05.249Z,101878.25
2022-09-21T12:23:44.980Z,101887.47
2022-09-21T12:26:18.598Z,101880.44
2022-09-21T12:28:50.313Z,101883.47
2022-09-21T12:31:25.699Z,101881.03
2022-09-21T12:33:57.735Z,101874.47
2022-09-21T12:36:31.011Z,101878.75
2022-09-21T12:39:06.459Z,101884.53
2022-09-21T12:41:40.810Z,101879.41
2022-09-21T12:44:18.364Z,101872.69
2022-09-21T12:46:53.491Z,101865.75
2022-09-21T12:49:27.306Z,101873.38
2022-09-21T12:51:58.684Z,101875.69
2022-09-21T12:54:37.888Z,101878.28
2022-09-21T12:57:42.529Z,101864.03
2022-09-21T13:00:11.961Z,101871.47
2022-09-21T13:02:48.829Z,101863.34
2022-09-21T13:05:27.659Z,101864.03
2022-09-21T13:08:05.358Z,101865.03
2022-09-21T13:10:47.253Z,101861.47
2022-09-21T13:13:25.173Z,101856.53
2022-09-21T13:15:53.650Z,101856.25
2022-09-21T13:18:27.279Z,101860.59
2022-09-21T13:20:57.272Z,101860.06
2022-09-21T13:23:29.393Z,101863.31
2022-09-21T13:26:04.356Z,101855.97
2022-09-21T13:29:09.766Z,101856.03
2022-09-21T13:31:58.006Z,101852.50
2022-09-21T13:34:29.734Z,101856.09
2022-09-21T13:37:27.364Z,101844.22
2022-09-21T13:40:42.453Z,101850.09
2022-09-21T13:43:22.182Z,101846.69
2022-09-21T13:45:56.023Z,101845.47
2022-09-21T13:48:29.606Z,101843.88
2022-09-21T13:51:01.676Z,101831.25
2022-09-21T13:53:35.887Z,101840.47
2022-09-21T13:56:09.776Z,101838.06
2022-09-21T13:58:44.925Z,101837.63
2022-09-21T14:01:45.147Z,101828.22
2022-09-21T14:04:22.561Z,101832.50
2022-09-21T14:06:54.179Z,101832.44
2022-09-21T14:09:27.610Z,101826.94
2022-09-21T14:11:58.779Z,101820.25
2022-09-21T14:14:31.567Z,101822.88
2022-09-21T14:17:00.380Z,101817.28
2022-09-21T14:20:06.795Z,101823.25
2022-09-21T14:22:41.056Z,101819.84
2022-09-21T14:25:30.572Z,101819.09
2022-09-21T14:28:05.875Z,101816.75
2022-09-21T14:30:36.470Z,101805.63
2022-09-21T14:33:22.249Z,101814.03
2022-09-21T14:35:53.145Z,101811.94
2022-09-21T14:38:26.884Z,101815.38
2022-09-21T14:40:58.754Z,101810.88
2022-09-21T14:43:29.356Z,101801.97
2022-09-21T14:46:13.988Z,101808.84
2022-09-21T14:48:53.089Z,101801.34
2022-09-21T14:51:28.186Z,101802.38
2022-09-21T14:54:17.453Z,101798.72
2022-09-21T14:56:57.144Z,101800.41
2022-09-21T14:59:38.591Z,101798.38
2022-09-21T15:02:19.553Z,101797.06
2022-09-21T15:05:01.912Z,101791.00
2022-09-21T15:07:57.699Z,101807.66
2022-09-21T15:10:54.530Z,101805.72
2022-09-21T15:13:49.710Z,101806.41
2022-09-21T15:16:42.518Z,101800.44
2022-09-21T15:19:22.851Z,101799.44
2022-09-21T15:21:52.573Z,101794.53
2022-09-21T15:24:26.951Z,101792.28
2022-09-21T15:27:06.367Z,101795.44
2022-09-21T15:29:34.793Z,101796.97
2022-09-21T15:32:02.990Z,101789.63
2022-09-21T15:34:33.010Z,101779.09
2022-09-21T15:37:17.293Z,101791.66
2022-09-21T15:39:45.047Z,101786.19
2022-09-21T15:42:22.909Z,101792.22
2022-09-21T15:44:55.172Z,101793.00
2022-09-21T15:47:26.123Z,101790.06
2022-09-21T15:49:54.085Z,101796.09
2022-09-21T15:52:30.112Z,101797.56
2022-09-21T15:55:00.447Z,101793.66
2022-09-21T15:57:40.291Z,101788.81
2022-09-21T16:00:19.574Z,101785.75
2022-09-21T16:02:57.072Z,101779.06
2022-09-21T16:05:25.597Z,101786.53
2022-09-21T16:08:05.936Z,101780.56
2022-09-21T16:10:40.499Z,101787.94
2022-09-21T16:13:41.595Z,101778.28
2022-09-21T16:16:11.228Z,101785.75
2022-09-21T16:18:46.093Z,101788.63
2022-09-21T16:21:22.951Z,101779.91
2022-09-21T16:23:52.583Z,101786.38
2022-09-21T16:26:23.410Z,101784.75
2022-09-21T16:28:58.839Z,101787.66
2022-09-21T16:31:35.419Z,101787.81
2022-09-21T16:34:07.524Z,101792.47
2022-09-21T16:36:42.295Z,101798.06
2022-09-21T16:39:15.826Z,101801.81
2022-09-21T16:41:48.532Z,101793.97
2022-09-21T16:44:22.989Z,101796.81
2022-09-21T16:46:57.063Z,101796.13
2022-09-21T16:49:30.170Z,101794.47
2022-09-21T16:51:58.526Z,101798.22
2022-09-21T16:54:27.366Z,101805.56
2022-09-21T16:56:57.378Z,101799.47
2022-09-21T16:59:27.571Z,101801.34
2022-09-21T17:01:57.200Z,101796.97
2022-09-21T17:04:27.841Z,101800.63
2022-09-21T17:06:56.143Z,101804.28
2022-09-21T17:09:29.497Z,101806.13
2022-09-21T17:11:59.323Z,101810.66
2022-09-21T17:14:32.461Z,101810.72
2022-09-21T17:17:00.849Z,101813.47
2022-09-21T17:19:28.519Z,101809.97
2022-09-21T17:21:56.249Z,101818.94
2022-09-21T17:24:48.835Z,101815.41
2022-09-21T17:27:12.330Z,101811.00
2022-09-21T17:29:47.748Z,101808.38
2022-09-21T17:32:16.448Z,101810.19
2022-09-21T17:34:44.920Z,101810.22
2022-09-21T17:37:12.534Z,101820.00
2022-09-21T17:39:41.828Z,101818.25
2022-09-21T17:42:19.197Z,101810.25
2022-09-21T17:45:12.411Z,101817.38
2022-09-21T17:47:40.939Z,101822.72
2022-09-21T17:50:20.549Z,101814.72
2022-09-21T17:53:06.344Z,101815.59
2022-09-21T17:55:34.658Z,101824.50
2022-09-21T17:58:29.401Z,101819.13
2022-09-21T18:01:02.579Z,101823.53
2022-09-21T18:03:35.777Z,101820.84
2022-09-21T18:06:04.120Z,101823.50
2022-09-21T18:08:34.023Z,101822.59
2022-09-21T18:11:13.526Z,101822.53
2022-09-21T18:13:52.352Z,101833.19
2022-09-21T18:16:35.861Z,101826.91
2022-09-21T18:19:12.272Z,101830.41
2022-09-21T18:21:44.480Z,101831.28
2022-09-21T18:24:20.014Z,101825.91
2022-09-21T18:26:49.143Z,101830.28
2022-09-21T18:29:40.842Z,101834.72
2022-09-21T18:32:32.244Z,101832.84
2022-09-21T18:35:14.314Z,101833.69
2022-09-21T18:37:53.557Z,101832.75
2022-09-21T18:40:29.200Z,101830.06
2022-09-21T18:43:06.115Z,101831.78
2022-09-21T18:45:38.774Z,101834.41
2022-09-21T18:48:22.675Z,101839.69
2022-09-21T18:50:58.373Z,101837.81
2022-09-21T18:53:34.299Z,101837.78
2022-09-21T18:56:05.789Z,101845.72
2022-09-21T18:58:35.317Z,101841.25
2022-09-21T19:01:04.078Z,101836.78
2022-09-21T19:03:34.036Z,101840.22
2022-09-21T19:06:32.568Z,101841.06
2022-09-21T19:09:10.286Z,101841.00
2022-09-21T19:11:47.949Z,101838.28
2022-09-21T19:14:23.481Z,101840.91
2022-09-21T19:17:07.536Z,101851.50
2022-09-21T19:19:46.599Z,101832.81
2022-09-21T19:22:16.627Z,101841.63
2022-09-21T19:24:57.028Z,101842.44
2022-09-21T19:27:33.220Z,101831.72
2022-09-21T19:30:07.063Z,101838.75
2022-09-21T19:32:39.777Z,101842.22
2022-09-21T19:35:19.102Z,101843.09
2022-09-21T19:37:48.112Z,101837.69
2022-09-21T19:40:17.197Z,101841.16
2022-09-21T19:42:54.664Z,101836.66
2022-09-21T19:45:27.781Z,101834.84
2022-09-21T19:48:01.484Z,101835.66
2022-09-21T19:50:41.070Z,101832.94
2022-09-21T19:53:29.376Z,101843.50
2022-09-21T19:56:16.561Z,101839.88
2022-09-21T19:59:02.381Z,101834.47
2022-09-21T20:01:33.026Z,101842.34
2022-09-21T20:04:02.072Z,101843.19
2022-09-21T20:06:37.307Z,101844.91
2022-09-21T20:09:12.915Z,101844.78
2022-09-21T20:11:47.960Z,101841.16
2022-09-21T20:14:31.790Z,101838.44
2022-09-21T20:17:01.114Z,101838.34
2022-09-21T20:19:38.988Z,101844.50
2022-09-21T20:22:14.083Z,101843.56
2022-09-21T20:24:52.893Z,101842.59
2022-09-21T20:27:30.548Z,101840.72
2022-09-21T20:29:58.172Z,101829.13
2022-09-21T20:32:25.960Z,101837.03
2022-09-21T20:34:55.210Z,101834.31
2022-09-21T20:37:27.464Z,101836.84
2022-09-21T20:39:55.643Z,101828.78
2022-09-21T20:42:24.816Z,101834.94
2022-09-21T20:44:52.924Z,101838.41
2022-09-21T20:47:21.530Z,101843.66
2022-09-21T20:49:49.842Z,101842.69
2022-09-21T20:52:18.280Z,101842.59
2022-09-21T20:54:49.492Z,101838.94
2022-09-21T20:57:18.077Z,101834.47
2022-09-21T20:59:46.150Z,101843.25
2022-09-21T21:02:15.222Z,101844.06
2022-09-21T21:04:42.987Z,101839.59
2022-09-21T21:07:10.975Z,101835.03
2022-09-21T21:09:38.669Z,101848.25
2022-09-21T21:12:09.388Z,101848.16
2022-09-21T21:14:37.288Z,101847.22
2022-09-21T21:17:05.499Z,101845.34
2022-09-21T21:19:33.370Z,101853.25
2022-09-21T21:22:01.056Z,101844.31
2022-09-21T21:24:40.993Z,101846.00
2022-09-21T21:27:16.532Z,101847.69
2022-09-21T21:29:46.252Z,101846.69
2022-09-21T21:32:14.936Z,101842.19
2022-09-21T21:34:43.497Z,101842.97
2022-09-21T21:37:12.261Z,101850.84
2022-09-21T21:39:40.015Z,101848.09
2022-09-21T21:42:07.994Z,101853.28
2022-09-21T21:44:38.981Z,101846.97
2022-09-21T21:47:27.731Z,101852.25
2022-09-21T21:49:54.761Z,101843.31
2022-09-21T21:52:22.531Z,101848.53
2022-09-21T21:54:50.825Z,101842.31
2022-09-21T21:57:18.929Z,101844.88
2022-09-21T21:59:47.912Z,101845.69
2022-09-21T22:02:15.795Z,101840.31
2022-09-21T22:04:43.521Z,101854.44
2022-09-21T22:07:11.439Z,101857.00
2022-09-21T22:09:39.098Z,101849.91
2022-09-21T22:12:06.996Z,101853.34
2022-09-21T22:14:34.725Z,101849.78
2022-09-21T22:17:03.828Z,101853.19
2022-09-21T22:19:32.943Z,101855.78
2022-09-21T22:22:00.969Z,101861.91
2022-09-21T22:24:28.651Z,101855.63
2022-09-21T22:26:56.916Z,101865.22
2022-09-21T22:29:24.682Z,101863.38
2022-09-21T22:31:54.067Z,101858.97
2022-09-21T22:34:23.143Z,101869.50
2022-09-21T22:36:51.317Z,101871.19
2022-09-21T22:39:19.490Z,101866.69
2022-09-21T22:41:47.266Z,101864.88
2022-09-21T22:44:14.895Z,101865.66
2022-09-21T22:46:42.680Z,101869.13
2022-09-21T22:49:10.449Z,101865.50
2022-09-21T22:51:39.457Z,101855.69
2022-09-21T22:54:07.314Z,101862.66
2022-09-21T22:56:35.263Z,101863.50
2022-09-21T22:59:05.074Z,101859.88
2022-09-21T23:01:34.718Z,101869.47
2022-09-21T23:04:05.211Z,101864.94
2022-09-21T23:06:34.959Z,101852.50
2022-09-21T23:09:09.101Z,101855.06
2022-09-21T23:11:39.022Z,101850.56
2022-09-21T23:14:06.979Z,101854.84
2022-09-21T23:16:34.857Z,101851.22
2022-09-21T23:19:03.206Z,101847.59
2022-09-21T23:21:31.375Z,101850.16
2022-09-21T23:24:01.087Z,101855.41
2022-09-21T23:26:31.455Z,101842.03
2022-09-21T23:29:03.538Z,101848.13
2022-09-21T23:31:32.969Z,101841.00
2022-09-21T23:34:04.394Z,101851.50
2022-09-21T23:36:32.985Z,101840.78
2022-09-21T23:39:00.702Z,101840.72
2022-09-21T23:41:32.083Z,101838.88
2022-09-21T23:44:00.040Z,101837.06
2022-09-21T23:46:29.238Z,101838.69
2022-09-21T23:48:57.944Z,101833.31
2022-09-21T23:51:25.929Z,101837.66
2022-09-21T23:53:54.603Z,101826.06
2022-09-21T23:56:23.947Z,101833.94
2022-09-21T23:58:53.527Z,101837.38
